Time;durP1;ratioP1;P1;durP2;ratioP2;P2;SDS_P1;SDS_P2;PMS_P1;PMS_P2;Temp;Humidity;BMP_temperature;BMP_pressure;BME280_temperature;BME280_humidity;BME280_pressure;Samples;Min_cycle;Max_cycle;Signal;HPM_P1;HPM_P2
2022/09/05 00:08:39;;;;;;;5.05;2.38;;;;;;;19.51;60.55;99926.47;5021439;27;20940;-40
2022/09/05 00:13:52;;;;;;;3.35;1.40;;;;;;;19.25;61.27;99906.56;5110084;27;20393;-42
2022/09/05 00:29:16;;;;;;;17.23;2.35;;;;;;;19.14;63.20;100075.88;5043366;28;20045;-41
2022/09/05 00:32:30;;;;;;;5.78;1.90;;;;;;;19.07;63.93;100065.63;5031039;28;20729;-43
2022/09/05 00:37:40;;;;;;;6.68;1.83;;;;;;;18.62;67.00;100082.06;5081296;27;20394;-40
2022/09/05 00:40:21;;;;;;;2.80;1.52;;;;;;;18.27;68.16;100101.69;5070122;28;20049;-47
2022/09/05 00:42:54;;;;;;;5.25;1.73;;;;;;;18.07;69.83;100116.28;5091850;27;20110;-41
2022/09/05 00:45:28;;;;;;;4.50;1.85;;;;;;;17.70;71.90;100092.97;5095004;27;20117;-39
2022/09/05 00:51:03;;;;;;;6.80;2.28;;;;;;;17.63;71.14;100108.94;5037010;27;20907;-43
2022/09/05 00:56:49;;;;;;;6.72;2.80;;;;;;;17.50;71.47;100104.09;5046927;28;20390;-40
2022/09/05 01:02:13;;;;;;;11.70;2.78;;;;;;;17.40;72.44;100103.53;5070090;27;20410;-42
2022/09/05 01:05:06;;;;;;;7.97;3.13;;;;;;;17.39;72.86;100104.41;5047223;28;20046;-38
2022/09/05 01:10:45;;;;;;;6.70;1.83;;;;;;;17.38;73.57;100086.13;5023940;27;20410;-40
2022/09/05 01:13:37;;;;;;;7.47;1.80;;;;;;;17.32;74.25;100081.94;5013864;28;20050;-42
2022/09/05 01:16:43;;;;;;;4.70;1.73;;;;;;;17.33;74.30;100083.66;5008853;28;20049;-41
2022/09/05 01:29:52;;;;;;;8.55;2.08;;;;;;;17.27;75.77;100031.50;5076233;27;20389;-43
2022/09/05 01:35:42;;;;;;;4.18;2.22;;;;;;;17.20;76.05;99997.66;5067859;27;20378;-45
2022/09/05 01:41:30;;;;;;;4.55;2.78;;;;;;;17.19;76.17;99988.09;5033020;28;20403;-40
2022/09/05 01:44:25;;;;;;;4.43;2.42;;;;;;;17.14;76.58;99982.16;4999192;28;20129;-40
2022/09/05 02:11:15;;;;;;;10.73;4.47;;;;;;;17.22;76.47;99919.09;5038962;27;20390;-42
2022/09/05 02:16:44;;;;;;;9.73;4.45;;;;;;;17.51;76.25;99919.03;5118149;27;20398;-37
2022/09/05 02:27:16;;;;;;;8.00;5.25;;;;;;;17.19;76.06;99967.16;5032126;28;20402;-43
2022/09/05 02:30:23;;;;;;;7.18;4.57;;;;;;;17.18;75.83;99969.81;5019896;28;20153;-39
2022/09/05 02:36:03;;;;;;;5.13;3.20;;;;;;;17.20;75.87;99989.78;5044327;27;20932;-40
2022/09/05 02:43:50;;;;;;;9.75;4.18;;;;;;;17.55;76.02;100009.66;5039929;28;20412;-43
2022/09/05 02:54:35;;;;;;;7.30;5.50;;;;;;;17.57;74.80;99997.41;5010141;28;20405;-40
2022/09/05 03:14:22;;;;;;;14.48;6.93;;;;;;;17.73;73.90;100022.16;5054670;27;20411;-41
2022/09/05 03:43:28;;;;;;;7.63;4.45;;;;;;;17.00;73.83;100044.47;5021772;27;20410;-40
2022/09/05 03:46:24;;;;;;;7.70;4.25;;;;;;;16.94;74.08;100046.38;5023979;28;20046;-40
2022/09/05 03:49:09;;;;;;;7.63;4.50;;;;;;;16.96;73.65;100039.31;5023428;28;20084;-42
2022/09/05 03:57:52;;;;;;;10.60;5.20;;;;;;;16.92;73.41;100052.56;5080749;27;20407;-39
2022/09/05 04:00:28;;;;;;;8.43;4.75;;;;;;;16.96;73.61;100038.50;5072950;28;20052;-43
2022/09/05 04:13:39;;;;;;;11.05;5.05;;;;;;;16.96;74.33;100048.97;5082748;27;20401;-41
2022/09/05 04:16:12;;;;;;;10.35;5.40;;;;;;;16.94;73.69;100046.38;5061280;28;20509;-40
2022/09/05 04:18:47;;;;;;;10.60;5.22;;;;;;;16.92;74.09;100045.56;5075860;28;20048;-41
2022/09/05 04:21:20;;;;;;;9.35;5.30;;;;;;;16.91;74.19;100040.38;5082409;28;20049;-43
2022/09/05 04:24:00;;;;;;;10.88;5.47;;;;;;;16.86;73.64;100053.59;5080668;28;20044;-37
2022/09/05 04:32:13;;;;;;;15.68;5.72;;;;;;;16.74;73.67;100049.56;5060105;27;20407;-44
2022/09/05 04:37:40;;;;;;;10.93;5.15;;;;;;;16.69;73.82;100056.69;5059787;28;20392;-38
2022/09/05 04:40:38;;;;;;;10.00;5.97;;;;;;;16.62;73.45;100050.75;5021963;28;20397;-39
2022/09/05 04:43:27;;;;;;;13.40;5.75;;;;;;;16.58;74.77;100049.13;5019884;28;20649;-46
2022/09/05 04:48:58;;;;;;;8.20;4.90;;;;;;;16.58;74.12;100057.84;5028034;27;20413;-39
2022/09/05 04:56:46;;;;;;;9.93;6.45;;;;;;;16.61;73.94;100075.19;5040863;28;20438;-47
2022/09/05 04:59:25;;;;;;;12.60;6.15;;;;;;;16.58;74.11;100067.44;4995542;28;20053;-38
2022/09/05 05:02:36;;;;;;;9.07;5.15;;;;;;;16.51;73.67;100068.53;5007342;28;20069;-44
2022/09/05 05:05:27;;;;;;;9.48;5.55;;;;;;;16.56;73.61;100066.63;5007512;28;20046;-41
2022/09/05 05:08:21;;;;;;;8.40;4.88;;;;;;;16.53;73.67;100069.31;5004876;28;20401;-42
2022/09/05 05:11:17;;;;;;;11.35;6.53;;;;;;;16.50;74.06;100066.78;5013038;28;20069;-42
2022/09/05 05:14:14;;;;;;;8.38;5.40;;;;;;;16.50;73.97;100072.88;5006777;28;20125;-42
2022/09/05 05:17:12;;;;;;;9.50;5.18;;;;;;;16.47;73.79;100077.31;5005667;28;20205;-41
2022/09/05 05:20:22;;;;;;;9.90;5.97;;;;;;;16.41;73.74;100073.13;5014044;28;20143;-38
2022/09/05 05:23:15;;;;;;;11.27;6.78;;;;;;;16.44;73.76;100079.13;5008907;28;20174;-39
2022/09/05 05:25:49;;;;;;;9.95;6.22;;;;;;;16.41;73.15;100071.38;5009306;28;20739;-42
2022/09/05 05:28:26;;;;;;;9.90;7.20;;;;;;;16.37;73.33;100072.34;5013278;28;20053;-43
2022/09/05 05:30:56;;;;;;;9.88;6.22;;;;;;;16.36;73.35;100070.66;5001177;28;20516;-41
2022/09/05 05:33:32;;;;;;;10.68;7.13;;;;;;;16.32;73.49;100074.25;5013572;28;20105;-40
2022/09/05 05:36:01;;;;;;;10.05;6.00;;;;;;;16.29;73.71;100074.31;5011921;28;20072;-42
2022/09/05 05:38:52;;;;;;;9.85;5.85;;;;;;;16.22;73.66;100080.59;5003803;28;20711;-43
2022/09/05 05:43:56;;;;;;;10.05;5.05;;;;;;;16.24;73.79;100095.31;5036474;28;20432;-35
2022/09/05 05:46:30;;;;;;;8.38;4.68;;;;;;;16.18;73.41;100088.50;5005777;28;20112;-38
2022/09/05 05:49:36;;;;;;;8.43;5.22;;;;;;;16.10;73.90;100095.69;5002187;28;20050;-38
2022/09/05 06:03:10;;;;;;;10.10;5.35;;;;;;;16.02;73.61;100097.63;5066488;27;20407;-37
2022/09/05 06:06:32;;;;;;;10.00;5.25;;;;;;;16.02;73.72;100102.84;5023810;28;20455;-40
2022/09/05 06:42:02;;;;;;;19.60;8.52;;;;;;;16.56;74.80;100139.84;5034596;28;20411;-36
2022/09/05 06:47:23;;;;;;;14.85;5.90;;;;;;;16.42;74.95;100143.66;5096641;27;20404;-46
2022/09/05 06:55:58;;;;;;;13.80;8.15;;;;;;;16.47;74.70;100155.75;5116071;27;20408;-39
2022/09/05 06:59:05;;;;;;;13.55;8.38;;;;;;;16.52;74.71;100154.72;5077139;28;20109;-43
2022/09/05 07:01:58;;;;;;;17.30;7.78;;;;;;;16.93;75.47;100164.16;5052619;28;20057;-44
2022/09/05 07:04:36;;;;;;;23.88;9.27;;;;;;;17.80;75.70;100153.78;5055977;28;20056;-46
2022/09/05 07:07:34;;;;;;;28.42;10.30;;;;;;;18.97;75.38;100160.44;5056638;28;20441;-40
2022/09/05 07:10:05;;;;;;;36.78;13.68;;;;;;;20.02;74.93;100154.81;5056462;28;20038;-40
2022/09/05 07:13:01;;;;;;;63.58;12.93;;;;;;;21.08;74.33;100164.44;5053237;28;20136;-44
2022/09/05 07:15:40;;;;;;;39.58;11.52;;;;;;;21.99;73.92;100156.75;5050507;28;20057;-41
2022/09/05 07:21:06;;;;;;;11.93;6.88;;;;;;;23.54;71.09;100170.81;5039735;28;20496;-43
2022/09/05 07:26:21;;;;;;;10.20;4.97;;;;;;;24.56;68.76;100173.91;5045020;27;20409;-42
2022/09/05 07:29:08;;;;;;;;;;;;;;;24.89;68.23;100167.53;5022514;28;20070;-44
2022/09/05 07:31:40;;;;;;;8.63;4.32;;;;;;;24.97;68.33;100169.72;5019262;28;20262;-42
2022/09/05 07:34:36;;;;;;;8.45;4.25;;;;;;;25.01;67.95;100175.69;5017094;28;20046;-41
2022/09/05 07:37:09;;;;;;;6.95;3.63;;;;;;;25.10;67.24;100172.47;5015893;28;20085;-44
2022/09/05 07:39:49;;;;;;;6.30;3.22;;;;;;;25.25;68.15;100173.31;5022001;28;20044;-41
2022/09/05 07:42:24;;;;;;;6.65;3.00;;;;;;;25.76;67.44;100179.00;5024869;28;20072;-38
2022/09/05 07:44:57;;;;;;;7.63;3.03;;;;;;;26.31;66.34;100184.31;5021565;28;20045;-45
2022/09/05 07:47:29;;;;;;;3.90;2.35;;;;;;;26.84;65.46;100178.06;5021349;28;20057;-47
2022/09/05 07:50:03;;;;;;;4.70;2.42;;;;;;;27.37;64.74;100187.72;5018216;28;20115;-45
2022/09/05 07:52:53;;;;;;;7.53;2.22;;;;;;;27.86;63.28;100184.28;5021752;28;20041;-47
2022/09/05 07:55:41;;;;;;;3.90;2.60;;;;;;;28.30;61.91;100192.59;5018233;28;20144;-43
2022/09/05 07:58:40;;;;;;;4.35;2.28;;;;;;;28.67;60.38;100195.09;5020108;28;20045;-46
2022/09/05 08:01:11;;;;;;;5.70;1.95;;;;;;;28.93;59.08;100205.59;5016548;28;20057;-41
2022/09/05 08:03:40;;;;;;;4.70;2.38;;;;;;;29.19;58.26;100205.38;5022040;28;20575;-44
2022/09/05 08:06:15;;;;;;;3.38;1.27;;;;;;;29.46;56.77;100206.78;5017533;28;20056;-42
2022/09/05 08:09:07;;;;;;;8.00;2.25;;;;;;;29.67;56.09;100208.72;4999392;28;20074;-45
2022/09/05 08:11:49;;;;;;;3.38;1.67;;;;;;;29.90;55.20;100203.31;4993996;28;20042;-38
2022/09/05 08:17:21;;;;;;;4.45;2.03;;;;;;;30.27;51.15;100199.44;5051841;28;20919;-41
2022/09/05 08:25:20;;;;;;;3.30;1.90;;;;;;;30.83;51.37;100199.25;5098711;27;20404;-43
2022/09/05 08:30:41;;;;;;;6.47;2.08;;;;;;;30.94;50.62;100217.88;5081560;27;20397;-42
2022/09/05 08:33:15;;;;;;;3.42;1.35;;;;;;;31.45;49.75;100214.41;5078812;28;21521;-40
2022/09/05 08:35:48;;;;;;;4.53;1.60;;;;;;;31.67;48.22;100218.69;5073872;28;20133;-47
2022/09/05 08:38:19;;;;;;;3.28;1.50;;;;;;;31.83;48.57;100222.66;5069769;28;20056;-39
2022/09/05 08:41:02;;;;;;;3.33;1.45;;;;;;;32.01;47.98;100218.34;5073602;28;20056;-51
2022/09/05 08:43:34;;;;;;;6.15;1.63;;;;;;;32.15;48.01;100221.59;5072246;28;20090;-39
2022/09/05 09:18:15;;;;;;;5.07;2.13;;;;;;;30.15;47.47;100228.00;5062295;27;20404;-47
2022/09/05 09:20:50;;;;;;;5.10;2.92;;;;;;;30.37;47.41;100218.19;5038847;28;20045;-44
2022/09/05 09:29:01;;;;;;;7.43;1.85;;;;;;;30.37;48.49;100220.88;5036812;27;20401;-45
2022/09/05 09:50:17;;;;;;;3.92;0.82;;;;;;;30.14;45.34;100210.28;5099854;27;20405;-48
2022/09/05 10:01:17;;;;;;;5.90;1.67;;;;;;;29.18;45.71;100208.16;5083929;27;20411;-42
2022/09/05 10:12:50;;;;;;;7.57;1.95;;;;;;;29.18;47.38;100208.97;5047286;27;20927;-48
2022/09/05 10:26:34;;;;;;;6.63;2.60;;;;;;;28.84;45.94;100211.63;5016874;27;20418;-46
2022/09/05 10:34:22;;;;;;;9.13;1.38;;;;;;;28.59;46.20;100202.84;5022449;27;20427;-45
2022/09/05 10:37:12;;;;;;;3.67;1.75;;;;;;;28.59;46.44;100202.84;5002075;28;20120;-40
2022/09/05 10:39:48;;;;;;;4.80;1.73;;;;;;;28.71;46.65;100203.72;4997276;28;20057;-40
2022/09/05 10:44:54;;;;;;;4.60;0.98;;;;;;;28.78;46.12;100201.44;5038642;27;20423;-43
2022/09/05 11:07:37;;;;;;;6.22;0.85;;;;;;;27.71;46.37;100171.16;5049013;27;20408;-42
2022/09/05 11:28:25;;;;;;;8.13;2.63;;;;;;;27.45;46.28;100174.72;5030518;28;20044;-42
2022/09/05 11:30:55;;;;;;;5.22;1.75;;;;;;;27.57;45.92;100172.13;5044215;28;20052;-43
2022/09/05 11:33:51;;;;;;;6.38;1.75;;;;;;;27.46;45.88;100181.72;5020418;28;20075;-39
2022/09/05 11:36:47;;;;;;;4.40;1.52;;;;;;;27.56;45.54;100173.09;5018773;28;20534;-40
2022/09/05 11:40:10;;;;;;;6.45;1.70;;;;;;;27.36;45.30;100177.19;5016466;28;20077;-42
2022/09/05 11:57:17;;;;;;;2.38;1.00;;;;;;;26.87;45.39;100183.19;5025582;27;20908;-42
2022/09/05 12:11:27;;;;;;;3.30;0.85;;;;;;;26.89;47.10;100175.97;5023359;28;20415;-43
2022/09/05 12:27:17;;;;;;;4.47;1.17;;;;;;;27.05;47.34;100174.94;5040422;27;20416;-45
2022/09/05 12:40:37;;;;;;;6.60;1.50;;;;;;;26.84;47.81;100178.06;5035932;28;20742;-41
2022/09/05 12:43:26;;;;;;;4.38;1.17;;;;;;;26.49;47.70;100184.00;5008100;28;20191;-37
2022/09/05 12:51:45;;;;;;;8.80;2.80;;;;;;;26.07;48.84;100169.03;5076861;27;20394;-46
2022/09/05 12:54:26;;;;;;;4.68;2.67;;;;;;;26.20;48.59;100170.88;5016314;28;20047;-41
2022/09/05 12:59:49;;;;;;;5.50;1.30;;;;;;;26.59;49.15;100166.50;5016555;27;21171;-41
2022/09/05 13:02:38;;;;;;;3.40;1.10;;;;;;;26.83;48.94;100152.47;5016132;28;20054;-40
2022/09/05 13:05:50;;;;;;;3.75;1.00;;;;;;;27.01;47.26;100165.44;5012118;28;20100;-45
2022/09/05 13:08:21;;;;;;;4.43;1.30;;;;;;;27.11;47.33;100161.19;5029577;28;20470;-48
2022/09/05 13:10:52;;;;;;;3.20;1.30;;;;;;;27.17;47.25;100166.06;5013285;28;20523;-47
2022/09/05 13:16:24;;;;;;;4.93;1.45;;;;;;;27.41;44.69;100175.91;5056370;27;20915;-42
2022/09/05 13:19:06;;;;;;;5.10;2.03;;;;;;;27.19;45.91;100165.97;5024881;28;20100;-45
2022/09/05 13:21:39;;;;;;;4.07;2.30;;;;;;;27.14;45.90;100163.63;5023978;28;20042;-44
2022/09/05 13:29:31;;;;;;;3.38;1.13;;;;;;;27.26;46.67;100166.38;5062397;27;20412;-45
2022/09/05 13:32:57;;;;;;;2.95;0.82;;;;;;;27.33;46.25;100157.81;5001393;28;20073;-41
2022/09/05 13:36:02;;;;;;;2.55;1.23;;;;;;;27.46;46.87;100163.13;5004642;28;20137;-41
2022/09/05 13:39:01;;;;;;;5.30;1.13;;;;;;;27.48;46.36;100154.19;4996001;28;20526;-41
2022/09/05 13:41:34;;;;;;;3.85;1.45;;;;;;;27.52;46.01;100153.84;5001293;28;20045;-44
2022/09/05 13:44:18;;;;;;;7.07;1.75;;;;;;;27.51;45.95;100148.63;4998667;28;20042;-46
2022/09/05 13:47:10;;;;;;;3.70;1.08;;;;;;;27.49;45.61;100151.41;4996290;28;20494;-44
2022/09/05 13:53:01;;;;;;;4.78;1.30;;;;;;;27.13;46.00;100156.63;5038709;27;21144;-46
2022/09/05 13:55:52;;;;;;;4.15;1.40;;;;;;;26.65;45.54;100158.09;5014415;28;20057;-41
2022/09/05 14:01:25;;;;;;;6.97;2.63;;;;;;;26.48;46.40;100161.06;5061320;27;20403;-43
2022/09/05 14:04:32;;;;;;;4.22;2.13;;;;;;;26.36;46.78;100158.28;5023552;28;20041;-44
2022/09/05 14:07:50;;;;;;;4.88;2.25;;;;;;;26.22;47.40;100161.00;5008304;28;20130;-41
2022/09/05 14:13:23;;;;;;;3.58;1.02;;;;;;;26.22;47.62;100163.66;5053978;28;20919;-46
2022/09/05 14:15:59;;;;;;;;;;;;;;;26.02;48.32;100147.25;5020712;28;20049;-43
2022/09/05 14:21:14;;;;;;;4.95;1.23;;;;;;;26.17;48.07;100148.88;5016788;28;19953;-42
2022/09/05 14:21:19;;;;;;;4.25;1.35;;;;;;;26.13;48.75;100152.69;5017935;28;20049;-40
2022/09/05 14:26:45;;;;;;;3.83;1.38;;;;;;;25.96;49.18;100152.97;5019847;28;20409;-43
2022/09/05 14:29:18;;;;;;;3.33;1.15;;;;;;;25.96;49.09;100156.47;4980430;28;20568;-46
2022/09/05 14:37:19;;;;;;;4.78;1.08;;;;;;;25.60;49.55;100152.63;5073420;28;20406;-42
2022/09/05 14:43:06;;;;;;;5.18;2.30;;;;;;;25.75;48.83;100135.72;5116063;27;20409;-46
2022/09/05 14:56:38;;;;;;;2.95;1.88;;;;;;;25.01;50.31;100122.69;5095934;27;20882;-41
2022/09/05 15:04:53;;;;;;;2.55;1.17;;;;;;;25.01;50.84;100143.88;5077109;27;20409;-41
2022/09/05 15:07:28;;;;;;;2.55;1.27;;;;;;;24.99;51.08;100140.50;5030739;28;20135;-49
2022/09/05 15:15:29;;;;;;;3.15;1.20;;;;;;;24.94;52.13;100131.97;5057865;27;20392;-38
2022/09/05 15:18:05;;;;;;;2.92;1.20;;;;;;;24.87;52.46;100121.78;5041656;28;20054;-44
2022/09/05 15:23:14;;;;;;;3.78;0.90;;;;;;;24.87;52.89;100116.47;5042664;27;20917;-47
2022/09/05 15:31:22;;;;;;;5.35;1.58;;;;;;;24.85;53.87;100070.66;5090177;27;20399;-45
2022/09/05 15:33:52;;;;;;;3.08;1.05;;;;;;;24.89;53.81;100077.47;5030084;28;20542;-44
2022/09/05 15:36:39;;;;;;;4.43;0.82;;;;;;;24.80;54.21;100067.44;5051768;28;20054;-47
2022/09/05 15:39:24;;;;;;;3.05;1.23;;;;;;;24.80;54.21;100083.34;5039004;28;20124;-43
2022/09/05 15:42:10;;;;;;;4.15;0.95;;;;;;;24.92;54.05;100088.84;5037731;28;20152;-46
2022/09/05 15:44:37;;;;;;;4.05;1.85;;;;;;;24.96;54.45;100077.09;5048704;28;20052;-39
2022/09/05 15:47:24;;;;;;;2.90;1.48;;;;;;;25.03;54.44;100079.25;5053877;28;20068;-40
2022/09/05 15:49:56;;;;;;;3.10;0.93;;;;;;;25.11;54.25;100080.56;5056401;28;20060;-40
2022/09/05 15:55:09;;;;;;;2.78;1.88;;;;;;;25.21;54.47;100062.28;5059527;28;20411;-41
2022/09/05 15:57:44;;;;;;;3.08;1.83;;;;;;;25.23;53.98;100052.44;5038780;28;20155;-44
2022/09/05 16:03:22;;;;;;;4.55;1.58;;;;;;;25.60;53.13;100047.41;5009492;27;20418;-42
2022/09/05 16:06:12;;;;;;;2.03;0.95;;;;;;;25.41;54.07;100048.59;5000801;28;20152;-54
2022/09/05 16:09:20;;;;;;;5.13;1.30;;;;;;;25.39;54.01;100050.50;5008963;28;20481;-41
2022/09/05 16:12:11;;;;;;;2.67;0.90;;;;;;;25.38;53.47;100045.28;4984829;28;20537;-42
2022/09/05 16:14:50;;;;;;;2.47;1.63;;;;;;;25.34;53.72;100041.13;4982054;28;20046;-42
2022/09/05 16:20:18;;;;;;;2.40;1.20;;;;;;;25.27;53.63;100043.34;5028664;28;21360;-42
2022/09/05 16:23:14;;;;;;;2.63;1.13;;;;;;;25.20;53.56;100031.44;5011053;28;20171;-40
2022/09/05 16:39:29;;;;;;;6.28;1.50;;;;;;;24.95;53.74;100043.63;5051027;27;20407;-43
2022/09/05 16:42:02;;;;;;;4.10;1.38;;;;;;;24.79;54.36;100044.56;4994505;28;20861;-40
2022/09/05 16:52:25;;;;;;;4.57;2.10;;;;;;;24.31;54.91;100050.97;5020931;28;20424;-41
2022/09/05 16:55:05;;;;;;;3.08;1.55;;;;;;;24.17;55.04;100050.94;4997950;28;20078;-41
2022/09/05 16:57:35;;;;;;;2.67;1.90;;;;;;;24.07;55.80;100062.06;5001844;28;20054;-41
2022/09/05 17:00:04;;;;;;;3.40;2.13;;;;;;;23.98;55.59;100058.16;4994629;28;20065;-41
2022/09/05 17:02:42;;;;;;;3.20;2.15;;;;;;;23.90;55.62;100046.31;4990734;28;20054;-44
2022/09/05 17:05:22;;;;;;;4.25;1.95;;;;;;;23.86;55.77;100041.25;4995063;28;20069;-45
2022/09/05 17:10:49;;;;;;;2.60;0.98;;;;;;;23.70;55.70;100019.25;5041456;28;20394;-40
2022/09/05 17:13:45;;;;;;;4.57;0.93;;;;;;;23.54;56.61;100004.28;5017931;28;20176;-40
2022/09/05 17:16:20;;;;;;;1.92;0.60;;;;;;;23.56;56.09;100013.00;5017191;28;20084;-41
2022/09/05 17:18:51;;;;;;;2.10;1.95;;;;;;;23.53;56.63;100007.88;5019493;28;20482;-46
2022/09/05 17:21:27;;;;;;;1.50;0.90;;;;;;;23.40;56.42;100009.56;5019366;28;20057;-38
2022/09/05 17:24:18;;;;;;;3.58;0.95;;;;;;;23.30;56.71;100004.75;5037669;28;20124;-40
2022/09/05 17:27:26;;;;;;;4.00;0.93;;;;;;;23.07;57.03;99991.03;5028267;28;20136;-40
2022/09/05 17:30:32;;;;;;;1.75;0.90;;;;;;;23.07;56.85;99996.31;5019974;28;20164;-46
2022/09/05 17:36:21;;;;;;;3.13;0.88;;;;;;;22.87;56.89;100001.88;5061537;27;20414;-43
2022/09/05 17:49:41;;;;;;;2.33;0.82;;;;;;;22.87;57.58;100012.44;5042526;28;20406;-42
2022/09/05 18:00:20;;;;;;;2.38;0.70;;;;;;;22.71;58.21;100005.38;5106835;27;20405;-44
2022/09/05 18:44:55;;;;;;;3.88;1.88;;;;;;;22.26;59.53;100032.28;5039526;28;20431;-41
2022/09/05 18:52:45;;;;;;;3.30;1.17;;;;;;;21.75;61.85;100016.44;5086051;27;20399;-39
2022/09/05 18:55:18;;;;;;;4.10;1.85;;;;;;;21.58;62.23;100008.41;5064094;28;20121;-45
2022/09/05 18:58:31;;;;;;;4.32;1.25;;;;;;;21.32;62.88;100023.69;5060895;28;20119;-42
2022/09/05 19:09:19;;;;;;;3.35;1.13;;;;;;;21.05;62.47;100010.94;5056434;28;20399;-43
2022/09/05 19:12:03;;;;;;;3.15;0.80;;;;;;;20.89;62.85;100007.31;4991806;28;20054;-41
2022/09/05 19:14:54;;;;;;;2.45;1.48;;;;;;;20.70;64.05;100002.88;5014121;28;20081;-45
2022/09/05 19:22:33;;;;;;;5.43;1.80;;;;;;;20.53;63.81;99999.25;5046809;27;20787;-44
2022/09/05 19:25:25;;;;;;;4.60;1.35;;;;;;;20.45;64.23;99997.88;5002570;28;20139;-40
2022/09/05 19:28:01;;;;;;;2.83;1.27;;;;;;;20.36;64.14;99993.91;5002470;28;20057;-44
2022/09/05 19:31:11;;;;;;;2.20;1.40;;;;;;;20.17;64.82;99994.72;5000815;28;20073;-40
2022/09/05 19:34:06;;;;;;;2.03;1.08;;;;;;;20.23;64.41;99998.84;5002691;28;20121;-44
2022/09/05 19:36:57;;;;;;;3.72;1.52;;;;;;;20.17;64.44;100000.78;4991930;28;20116;-44
2022/09/05 19:39:48;;;;;;;2.60;1.17;;;;;;;20.15;64.26;99991.28;5000698;28;20124;-41
2022/09/05 19:42:34;;;;;;;6.45;1.25;;;;;;;20.12;64.14;100007.19;4999077;28;20149;-45
2022/09/05 19:45:25;;;;;;;3.65;1.23;;;;;;;20.11;64.33;100010.72;4999424;28;20082;-40
2022/09/05 19:48:27;;;;;;;5.28;2.10;;;;;;;20.09;64.37;100017.84;5018710;28;20673;-38
2022/09/05 19:50:56;;;;;;;2.72;1.02;;;;;;;20.03;64.78;100014.53;5019815;28;20038;-41
2022/09/05 19:53:23;;;;;;;;;;;;;;;19.85;65.36;100015.28;5011989;28;20058;-43
2022/09/05 19:55:51;;;;;;;2.72;1.23;;;;;;;19.97;64.90;100014.78;5019505;28;19921;-41
2022/09/05 19:58:20;;;;;;;1.90;1.10;;;;;;;20.03;64.51;100008.44;5020002;28;20056;-50
2022/09/05 20:01:00;;;;;;;2.28;0.73;;;;;;;20.01;64.22;99998.00;5015389;28;20485;-40
2022/09/05 20:03:30;;;;;;;4.07;1.50;;;;;;;20.01;64.37;99994.50;5014161;28;20050;-42
2022/09/05 20:06:26;;;;;;;2.33;1.23;;;;;;;19.98;64.52;99994.59;5015244;28;20045;-42
2022/09/05 20:11:34;;;;;;;4.18;1.98;;;;;;;20.03;64.62;99993.50;5020955;27;20413;-39
2022/09/05 20:14:17;;;;;;;4.65;2.45;;;;;;;20.00;64.58;99998.91;4997216;28;20069;-39
2022/09/05 20:16:45;;;;;;;3.38;2.75;;;;;;;19.98;64.62;100003.34;5015122;28;20124;-43
2022/09/05 20:19:33;;;;;;;3.47;2.72;;;;;;;19.95;64.38;99999.97;5014734;28;20049;-42
2022/09/05 20:22:03;;;;;;;4.80;1.77;;;;;;;20.00;63.95;99998.06;5004152;28;20448;-45
2022/09/05 20:24:51;;;;;;;4.55;2.85;;;;;;;19.97;64.05;99993.75;5004460;28;20140;-42
2022/09/05 20:27:18;;;;;;;4.05;2.88;;;;;;;19.94;64.48;99993.03;5007530;28;20101;-38
2022/09/05 20:29:56;;;;;;;4.57;2.95;;;;;;;19.91;64.37;99997.50;5014625;28;20481;-37
2022/09/05 20:32:29;;;;;;;3.85;3.20;;;;;;;19.87;64.45;99992.44;5017980;28;20057;-46
2022/09/05 20:35:09;;;;;;;4.53;2.92;;;;;;;19.83;64.89;99996.13;5009364;28;20057;-39
2022/09/05 20:38:02;;;;;;;4.80;3.10;;;;;;;19.78;64.88;99991.06;5005036;28;20070;-43
2022/09/05 20:40:49;;;;;;;5.22;3.33;;;;;;;19.76;64.73;99996.38;5016113;28;20074;-44
2022/09/05 20:43:57;;;;;;;7.10;3.58;;;;;;;19.68;64.57;100002.84;5009921;28;20132;-41
2022/09/05 20:46:29;;;;;;;5.53;2.97;;;;;;;19.72;64.73;100004.47;4990423;28;20054;-47
2022/09/05 20:49:22;;;;;;;4.43;3.13;;;;;;;19.69;64.83;99999.34;5007867;28;20137;-49
2022/09/05 20:52:13;;;;;;;6.05;3.22;;;;;;;19.70;64.88;99999.28;5003983;28;20046;-44
2022/09/05 20:55:00;;;;;;;4.40;3.08;;;;;;;19.70;65.18;99996.66;4992205;28;20140;-43
2022/09/05 20:57:46;;;;;;;5.10;3.08;;;;;;;19.70;64.77;99996.66;5008255;28;20097;-43
2022/09/05 21:00:19;;;;;;;6.88;3.80;;;;;;;19.73;65.21;99979.91;4997767;28;20454;-39
2022/09/05 21:10:50;;;;;;;4.22;2.78;;;;;;;19.72;65.30;99963.25;5038535;28;20387;-44
2022/09/05 21:13:27;;;;;;;5.50;3.35;;;;;;;19.76;65.17;99959.59;4998803;28;20409;-39
2022/09/05 21:15:54;;;;;;;5.90;3.05;;;;;;;19.76;65.39;99964.00;5001495;28;20097;-40
2022/09/05 21:18:25;;;;;;;7.10;4.47;;;;;;;19.76;65.49;99959.59;4995769;28;20697;-40
2022/09/05 21:23:37;;;;;;;5.75;2.03;;;;;;;19.78;65.51;99962.16;5020519;27;20727;-43
2022/09/05 21:26:21;;;;;;;4.53;2.25;;;;;;;19.75;65.54;99963.13;4997766;28;20042;-45
2022/09/05 21:29:15;;;;;;;5.97;2.17;;;;;;;19.75;65.81;99968.38;5001319;28;20089;-40
2022/09/05 21:31:51;;;;;;;4.88;2.28;;;;;;;19.81;65.22;99971.66;5002167;28;20068;-44
2022/09/05 21:37:03;;;;;;;4.55;2.03;;;;;;;19.93;64.99;99981.69;5037643;28;20405;-37
2022/09/05 21:39:40;;;;;;;5.10;2.05;;;;;;;19.96;65.14;99997.28;5007669;28;20055;-41
2022/09/05 21:42:28;;;;;;;3.78;1.85;;;;;;;20.00;64.98;100004.16;4981558;28;20065;-38
2022/09/05 21:45:17;;;;;;;5.78;2.50;;;;;;;20.02;64.89;100015.47;4991210;28;20129;-41
2022/09/05 21:48:05;;;;;;;4.43;2.38;;;;;;;20.04;64.83;100026.75;4981132;28;20081;-39
2022/09/05 21:50:38;;;;;;;3.25;1.85;;;;;;;20.06;64.49;100028.50;4979738;28;20046;-39
2022/09/05 21:53:12;;;;;;;5.75;2.35;;;;;;;20.08;64.50;100042.41;4989127;28;20054;-41
2022/09/05 21:56:06;;;;;;;3.85;2.38;;;;;;;20.08;65.00;100074.81;4992503;28;20069;-43
2022/09/05 21:58:54;;;;;;;4.70;2.50;;;;;;;20.11;64.92;100105.38;4988510;28;20058;-43
2022/09/05 22:01:41;;;;;;;8.98;2.40;;;;;;;20.08;64.95;100137.06;4985799;28;20092;-42
2022/09/05 22:04:20;;;;;;;3.50;1.42;;;;;;;20.02;64.58;100149.53;4989481;28;20042;-45
2022/09/05 22:06:48;;;;;;;3.28;0.52;;;;;;;19.93;64.51;100134.13;5001248;28;20077;-39
2022/09/05 22:09:16;;;;;;;1.40;0.68;;;;;;;19.77;64.94;100129.47;4988973;28;20058;-38
2022/09/05 22:11:46;;;;;;;5.15;1.00;;;;;;;19.56;65.35;100135.56;4989104;28;20055;-47
2022/09/05 22:14:13;;;;;;;2.00;0.55;;;;;;;19.35;65.03;100143.38;4992618;28;20179;-39
2022/09/05 22:16:45;;;;;;;3.50;0.22;;;;;;;19.20;65.01;100129.03;4992299;28;20050;-41
2022/09/05 22:19:21;;;;;;;1.95;0.63;;;;;;;19.09;65.85;100121.56;4990253;28;20595;-45
2022/09/05 22:21:52;;;;;;;1.00;0.32;;;;;;;18.96;65.56;100122.00;4984573;28;20062;-43
2022/09/05 22:24:20;;;;;;;0.88;0.32;;;;;;;18.87;65.72;100104.81;4986298;28;20433;-45
2022/09/05 22:26:53;;;;;;;1.33;0.22;;;;;;;18.81;65.33;100098.94;4988179;28;20038;-42
2022/09/05 22:29:38;;;;;;;1.88;0.73;;;;;;;18.71;65.66;100106.28;4986223;28;20053;-42
2022/09/05 22:32:06;;;;;;;0.77;0.43;;;;;;;18.67;66.10;100094.19;4995138;28;20146;-39
2022/09/05 22:34:33;;;;;;;1.67;0.60;;;;;;;18.64;66.06;100095.13;4991311;28;20053;-46
2022/09/05 22:36:59;;;;;;;1.20;0.52;;;;;;;18.60;66.20;100083.06;4996385;28;20050;-39
2022/09/05 22:39:26;;;;;;;2.33;0.85;;;;;;;18.55;66.55;100085.84;4983331;28;20046;-40
2022/09/05 22:42:06;;;;;;;1.52;0.73;;;;;;;18.52;66.33;100064.13;4981733;28;20050;-41
2022/09/05 22:44:37;;;;;;;1.05;0.47;;;;;;;18.47;66.75;100036.28;4989515;28;20054;-39
2022/09/05 22:47:04;;;;;;;0.95;0.30;;;;;;;18.47;66.11;100015.31;4982235;28;20559;-40
2022/09/05 22:49:31;;;;;;;1.80;0.38;;;;;;;18.46;66.46;99976.03;4974413;28;20043;-41
2022/09/05 22:51:57;;;;;;;3.92;0.47;;;;;;;18.45;66.09;99946.34;4975367;28;20046;-39
2022/09/05 22:54:24;;;;;;;3.17;0.45;;;;;;;18.39;66.11;99959.69;4976796;28;20042;-38
2022/09/05 22:56:51;;;;;;;1.10;0.13;;;;;;;18.35;66.27;99947.59;4973429;28;20050;-41
2022/09/05 22:59:19;;;;;;;1.75;0.38;;;;;;;18.33;66.20;99938.91;4979516;28;20058;-42
2022/09/05 23:01:46;;;;;;;1.58;0.45;;;;;;;18.25;66.48;99931.34;4970357;28;20410;-43
2022/09/05 23:04:13;;;;;;;1.55;0.25;;;;;;;18.21;67.23;99930.59;4976400;28;20508;-37